Time;durP1;ratioP1;P1;durP2;ratioP2;P2;SDS_P1;SDS_P2;PMS_P1;PMS_P2;Temp;Humidity;BMP_temperature;BMP_pressure;BME280_temperature;BME280_humidity;BME280_pressure;Samples;Min_cycle;Max_cycle;Signal;HPM_P1;HPM_P2
2023/10/26 00:00:13;;;;;;;31.98;19.58;;;;;;;;;;4996919;28;20480;-71
2023/10/26 00:02:39;;;;;;;25.17;16.67;;;;;;;;;;5015065;28;20034;-70
2023/10/26 00:05:05;;;;;;;19.60;13.70;;;;;;;;;;4997086;28;20033;-71
2023/10/26 00:07:31;;;;;;;15.68;12.52;;;;;;;;;;5014934;28;20145;-72
2023/10/26 00:09:56;;;;;;;16.67;11.93;;;;;;;;;;5014581;28;20062;-71
2023/10/26 00:12:23;;;;;;;16.20;11.73;;;;;;;;;;5014571;28;20018;-69
2023/10/26 00:14:48;;;;;;;16.67;11.82;;;;;;;;;;5014312;28;20029;-69
2023/10/26 00:17:14;;;;;;;14.68;11.23;;;;;;;;;;5014688;28;20072;-69
2023/10/26 00:19:39;;;;;;;14.77;11.38;;;;;;;;;;4996845;28;20025;-69
2023/10/26 00:22:05;;;;;;;15.88;11.18;;;;;;;;;;5014474;28;20084;-69
2023/10/26 00:24:31;;;;;;;16.88;12.63;;;;;;;;;;5014182;28;20022;-68
2023/10/26 00:26:56;;;;;;;17.75;12.27;;;;;;;;;;5014517;28;20026;-68
2023/10/26 00:29:21;;;;;;;15.50;11.35;;;;;;;;;;5014649;28;20083;-68
2023/10/26 00:31:47;;;;;;;15.00;11.88;;;;;;;;;;4996854;28;20038;-68
2023/10/26 00:34:12;;;;;;;13.32;10.93;;;;;;;;;;4996979;28;20037;-69
2023/10/26 00:36:38;;;;;;;14.07;10.63;;;;;;;;;;5014557;28;20034;-69
2023/10/26 00:39:03;;;;;;;12.40;10.20;;;;;;;;;;4996904;28;20037;-69
2023/10/26 00:41:30;;;;;;;12.20;10.25;;;;;;;;;;4996685;28;20132;-69
2023/10/26 00:43:55;;;;;;;12.65;10.85;;;;;;;;;;5013907;28;20427;-68
2023/10/26 00:46:21;;;;;;;14.02;11.00;;;;;;;;;;5014222;28;20064;-69
2023/10/26 00:48:46;;;;;;;14.70;10.93;;;;;;;;;;5014194;28;20093;-68
2023/10/26 00:51:12;;;;;;;13.38;10.48;;;;;;;;;;5013939;28;20365;-69
2023/10/26 00:53:39;;;;;;;12.77;10.20;;;;;;;;;;4996630;28;20442;-69
2023/10/26 00:56:05;;;;;;;15.57;11.23;;;;;;;;;;4996380;28;20026;-69
2023/10/26 00:58:31;;;;;;;13.23;11.02;;;;;;;;;;5014217;28;20103;-69
2023/10/26 01:00:57;;;;;;;11.57;10.35;;;;;;;;;;5014008;28;20087;-69
2023/10/26 01:03:23;;;;;;;12.35;10.73;;;;;;;;;;5014075;28;20034;-69
2023/10/26 01:05:49;;;;;;;11.95;9.93;;;;;;;;;;5013933;28;20030;-69
2023/10/26 01:08:14;;;;;;;12.45;9.73;;;;;;;;;;5014238;28;20121;-67
2023/10/26 01:10:39;;;;;;;12.82;11.07;;;;;;;;;;4998719;28;20033;-68
2023/10/26 01:13:08;;;;;;;15.43;10.95;;;;;;;;;;5000519;28;20030;-68
2023/10/26 01:15:33;;;;;;;13.00;10.65;;;;;;;;;;5017907;28;20504;-68
2023/10/26 01:17:59;;;;;;;15.10;10.20;;;;;;;;;;4984152;28;20021;-68
2023/10/26 01:20:24;;;;;;;10.98;9.57;;;;;;;;;;5017379;28;20068;-68
2023/10/26 01:22:51;;;;;;;14.02;10.82;;;;;;;;;;5017308;28;20038;-68
2023/10/26 01:25:17;;;;;;;12.30;10.20;;;;;;;;;;5017259;28;20029;-68
2023/10/26 01:27:42;;;;;;;11.65;9.82;;;;;;;;;;4999576;28;20037;-68
2023/10/26 01:30:08;;;;;;;13.10;10.07;;;;;;;;;;5017205;28;20513;-68
2023/10/26 01:32:39;;;;;;;11.15;9.38;;;;;;;;;;4999693;28;20034;-68
2023/10/26 01:35:04;;;;;;;11.15;9.68;;;;;;;;;;4983373;28;20488;-68
2023/10/26 01:37:33;;;;;;;11.35;9.18;;;;;;;;;;5017614;28;20109;-69
2023/10/26 01:39:58;;;;;;;12.52;10.07;;;;;;;;;;5000177;28;20076;-69
2023/10/26 01:42:23;;;;;;;12.02;9.40;;;;;;;;;;5027266;23;20086;-69
2023/10/26 01:44:49;;;;;;;11.13;9.07;;;;;;;;;;5055428;23;20136;-69
2023/10/26 01:50:53;;;;;;;13.73;9.13;;;;;;;;;;5050424;23;20400;-70
2023/10/26 01:53:21;;;;;;;12.52;8.77;;;;;;;;;;5020910;23;20413;-67
2023/10/26 01:55:47;;;;;;;11.30;9.27;;;;;;;;;;5017021;28;20030;-68
2023/10/26 01:58:12;;;;;;;11.65;8.65;;;;;;;;;;5031944;28;20486;-68
2023/10/26 02:00:37;;;;;;;11.80;9.10;;;;;;;;;;5015328;28;20025;-68
2023/10/26 02:03:03;;;;;;;8.93;7.95;;;;;;;;;;5031781;28;20037;-68
2023/10/26 02:05:28;;;;;;;11.23;8.52;;;;;;;;;;5031757;28;20026;-67
2023/10/26 02:07:54;;;;;;;10.75;8.55;;;;;;;;;;4998896;28;20018;-69
2023/10/26 02:10:19;;;;;;;10.43;8.32;;;;;;;;;;5031656;28;20116;-69
2023/10/26 02:12:45;;;;;;;10.93;8.27;;;;;;;;;;5016412;28;20080;-71
2023/10/26 02:15:11;;;;;;;8.40;7.43;;;;;;;;;;5016680;28;20084;-69
2023/10/26 02:17:37;;;;;;;9.10;7.97;;;;;;;;;;5016600;28;20112;-68
2023/10/26 02:20:02;;;;;;;9.82;7.57;;;;;;;;;;4998664;28;20056;-70
2023/10/26 02:22:28;;;;;;;11.10;7.50;;;;;;;;;;4997688;28;20034;-70
2023/10/26 02:24:53;;;;;;;9.40;7.75;;;;;;;;;;5031424;28;20538;-70
2023/10/26 02:27:18;;;;;;;9.65;7.05;;;;;;;;;;5031659;28;20366;-69
2023/10/26 02:29:44;;;;;;;7.88;6.97;;;;;;;;;;5016129;28;20445;-69
2023/10/26 02:32:09;;;;;;;9.45;6.93;;;;;;;;;;5016357;28;20390;-68
2023/10/26 02:34:35;;;;;;;7.65;6.47;;;;;;;;;;5016029;28;20481;-68
2023/10/26 02:37:01;;;;;;;6.78;6.07;;;;;;;;;;5015957;28;20476;-69
2023/10/26 02:39:27;;;;;;;7.35;6.60;;;;;;;;;;4982188;28;20038;-68
2023/10/26 02:41:52;;;;;;;7.43;5.97;;;;;;;;;;5016081;28;20033;-68
2023/10/26 02:44:18;;;;;;;6.38;5.80;;;;;;;;;;5015835;28;20033;-68
2023/10/26 02:46:43;;;;;;;5.85;5.28;;;;;;;;;;5016079;28;20057;-69
2023/10/26 02:49:08;;;;;;;5.93;5.32;;;;;;;;;;5015743;28;20389;-67
2023/10/26 02:51:34;;;;;;;6.43;5.82;;;;;;;;;;5030972;28;20484;-67
2023/10/26 02:54:00;;;;;;;6.45;5.07;;;;;;;;;;5030723;28;20053;-67
2023/10/26 02:56:26;;;;;;;5.68;5.18;;;;;;;;;;5015601;28;20038;-68
2023/10/26 02:58:52;;;;;;;5.85;5.25;;;;;;;;;;5015551;28;20103;-68
2023/10/26 03:01:18;;;;;;;6.22;5.25;;;;;;;;;;5015687;28;20085;-68
2023/10/26 03:03:43;;;;;;;5.47;4.95;;;;;;;;;;5031058;28;20022;-68
2023/10/26 03:06:09;;;;;;;5.53;5.03;;;;;;;;;;5015970;28;20034;-66
2023/10/26 03:08:35;;;;;;;7.15;5.18;;;;;;;;;;5015933;28;20099;-66
2023/10/26 03:11:00;;;;;;;6.13;5.40;;;;;;;;;;5015614;28;20459;-67
2023/10/26 03:13:26;;;;;;;6.93;5.38;;;;;;;;;;5015281;28;20030;-67
2023/10/26 03:15:51;;;;;;;11.00;5.43;;;;;;;;;;5015492;28;20026;-68
2023/10/26 03:18:17;;;;;;;8.50;5.40;;;;;;;;;;5015448;28;20066;-67
2023/10/26 03:20:43;;;;;;;6.03;5.45;;;;;;;;;;5015436;28;20026;-68
2023/10/26 03:23:11;;;;;;;7.65;6.10;;;;;;;;;;5015032;28;20030;-67
2023/10/26 03:25:36;;;;;;;7.43;6.45;;;;;;;;;;5030255;28;20036;-67
2023/10/26 03:28:01;;;;;;;6.63;6.03;;;;;;;;;;5015285;28;20022;-67
2023/10/26 03:30:28;;;;;;;6.95;6.10;;;;;;;;;;5015261;28;20025;-67
2023/10/26 03:32:53;;;;;;;8.30;6.20;;;;;;;;;;5015103;28;20117;-67
2023/10/26 03:35:19;;;;;;;7.03;5.85;;;;;;;;;;5030103;28;20108;-67
2023/10/26 03:37:45;;;;;;;5.63;5.13;;;;;;;;;;5014855;28;20397;-66
2023/10/26 03:40:11;;;;;;;5.93;5.35;;;;;;;;;;4998035;28;20029;-68
2023/10/26 03:42:36;;;;;;;6.55;4.65;;;;;;;;;;5014946;28;20026;-65
2023/10/26 03:45:02;;;;;;;6.85;4.70;;;;;;;;;;5015069;28;20024;-65
2023/10/26 03:47:27;;;;;;;5.70;5.20;;;;;;;;;;5014375;28;20025;-70
2023/10/26 03:49:55;;;;;;;5.10;4.63;;;;;;;;;;5014960;28;20021;-70
2023/10/26 03:52:21;;;;;;;5.47;4.97;;;;;;;;;;5029830;28;20034;-70
2023/10/26 03:54:48;;;;;;;6.13;5.20;;;;;;;;;;4997018;28;20046;-69
2023/10/26 03:57:15;;;;;;;5.30;4.60;;;;;;;;;;5014327;28;20034;-70
2023/10/26 03:59:41;;;;;;;5.00;4.57;;;;;;;;;;5014645;28;20464;-70
2023/10/26 04:02:06;;;;;;;5.43;4.95;;;;;;;;;;4996779;28;20088;-69
2023/10/26 04:04:32;;;;;;;6.55;5.00;;;;;;;;;;5014846;28;20025;-70
2023/10/26 04:06:57;;;;;;;5.40;4.90;;;;;;;;;;5014292;28;20080;-70
2023/10/26 04:09:23;;;;;;;5.80;4.75;;;;;;;;;;5030150;28;20032;-70
2023/10/26 04:11:48;;;;;;;11.63;5.75;;;;;;;;;;5014555;28;20041;-68
2023/10/26 04:14:14;;;;;;;9.10;5.75;;;;;;;;;;5014208;28;20088;-68
2023/10/26 04:16:39;;;;;;;10.50;6.18;;;;;;;;;;5013739;28;20041;-70
2023/10/26 04:19:05;;;;;;;13.68;7.25;;;;;;;;;;5014242;28;20037;-69
2023/10/26 04:21:30;;;;;;;11.88;6.78;;;;;;;;;;5014340;28;20038;-68
2023/10/26 04:23:55;;;;;;;14.38;7.80;;;;;;;;;;5029319;28;20030;-67
2023/10/26 04:26:21;;;;;;;13.07;7.97;;;;;;;;;;5013565;28;20045;-67
2023/10/26 04:28:46;;;;;;;10.00;7.00;;;;;;;;;;5013534;28;20084;-67
2023/10/26 04:31:12;;;;;;;9.00;6.60;;;;;;;;;;5014319;28;20036;-66
2023/10/26 04:33:37;;;;;;;11.10;6.30;;;;;;;;;;5029527;28;20022;-67
2023/10/26 04:36:04;;;;;;;13.57;7.35;;;;;;;;;;5013961;28;20060;-65
2023/10/26 04:38:30;;;;;;;13.50;7.47;;;;;;;;;;5014148;28;20049;-64
2023/10/26 04:40:57;;;;;;;9.63;6.57;;;;;;;;;;5029012;28;20034;-67
2023/10/26 04:43:23;;;;;;;10.82;6.97;;;;;;;;;;5028912;28;20052;-66
2023/10/26 04:45:48;;;;;;;12.18;7.18;;;;;;;;;;5013490;28;20109;-67
2023/10/26 04:48:13;;;;;;;10.30;7.35;;;;;;;;;;5013734;28;20021;-66
2023/10/26 04:50:39;;;;;;;10.60;6.65;;;;;;;;;;5013657;28;20025;-68
2023/10/26 04:53:04;;;;;;;13.60;8.85;;;;;;;;;;5013592;28;20030;-64
2023/10/26 04:55:36;;;;;;;18.55;10.52;;;;;;;;;;4980539;28;20454;-65
2023/10/26 04:58:02;;;;;;;15.68;9.32;;;;;;;;;;5013697;28;20053;-70
2023/10/26 05:00:28;;;;;;;14.27;9.38;;;;;;;;;;5013734;28;20034;-70
2023/10/26 05:02:53;;;;;;;7.90;6.47;;;;;;;;;;5013896;28;20477;-70
2023/10/26 05:05:18;;;;;;;9.07;7.00;;;;;;;;;;5013485;28;20030;-70
2023/10/26 05:07:45;;;;;;;6.00;5.50;;;;;;;;;;4979889;28;20129;-70
2023/10/26 05:10:10;;;;;;;5.97;5.10;;;;;;;;;;5013903;28;20026;-70
2023/10/26 05:12:36;;;;;;;6.57;5.50;;;;;;;;;;5013865;28;20364;-70
2023/10/26 05:15:01;;;;;;;5.35;4.85;;;;;;;;;;4995996;28;20034;-70
2023/10/26 05:17:27;;;;;;;5.85;4.85;;;;;;;;;;4995954;28;20113;-70
2023/10/26 05:19:52;;;;;;;5.53;4.43;;;;;;;;;;4995994;28;20033;-70
2023/10/26 05:22:19;;;;;;;5.30;4.80;;;;;;;;;;5013697;28;20034;-70
2023/10/26 05:24:44;;;;;;;6.10;5.22;;;;;;;;;;4995889;28;20053;-67
2023/10/26 05:27:10;;;;;;;5.85;5.32;;;;;;;;;;5013816;28;20077;-70
2023/10/26 05:29:35;;;;;;;5.00;4.60;;;;;;;;;;5013747;28;20117;-70
2023/10/26 05:32:02;;;;;;;4.38;3.97;;;;;;;;;;5013625;28;20022;-70
2023/10/26 05:34:28;;;;;;;4.60;4.18;;;;;;;;;;4996468;28;20129;-70
2023/10/26 05:36:53;;;;;;;5.38;4.05;;;;;;;;;;5013347;28;20058;-70
2023/10/26 05:39:19;;;;;;;5.28;4.13;;;;;;;;;;5013480;28;20037;-70
2023/10/26 05:41:44;;;;;;;4.38;3.83;;;;;;;;;;4994895;28;20065;-70
2023/10/26 05:44:10;;;;;;;3.15;2.95;;;;;;;;;;5011928;28;20026;-70
2023/10/26 05:46:37;;;;;;;3.00;2.63;;;;;;;;;;5012217;28;20097;-70
2023/10/26 05:49:03;;;;;;;3.17;2.90;;;;;;;;;;4994755;28;20113;-70
2023/10/26 05:51:29;;;;;;;4.15;2.40;;;;;;;;;;4993010;28;20112;-70
2023/10/26 05:53:55;;;;;;;3.20;3.00;;;;;;;;;;5010053;28;20046;-70
2023/10/26 05:56:20;;;;;;;3.38;3.10;;;;;;;;;;5011657;28;20057;-70
2023/10/26 05:58:47;;;;;;;3.00;2.70;;;;;;;;;;5016027;28;20104;-69
2023/10/26 06:01:13;;;;;;;3.30;3.08;;;;;;;;;;5016042;28;20041;-69
2023/10/26 06:03:39;;;;;;;3.00;2.70;;;;;;;;;;4998388;28;20044;-69
2023/10/26 06:06:05;;;;;;;3.08;2.63;;;;;;;;;;5016088;28;20018;-69
2023/10/26 06:08:31;;;;;;;3.67;2.60;;;;;;;;;;5016031;28;20370;-69
2023/10/26 06:10:57;;;;;;;2.35;2.20;;;;;;;;;;5016029;28;20014;-69
2023/10/26 06:13:24;;;;;;;2.35;2.15;;;;;;;;;;5015831;28;20022;-69
2023/10/26 06:15:50;;;;;;;2.65;2.45;;;;;;;;;;4998737;28;20029;-70
2023/10/26 06:18:16;;;;;;;2.90;2.70;;;;;;;;;;5015869;28;20034;-69
2023/10/26 06:20:42;;;;;;;2.60;2.40;;;;;;;;;;5015973;28;20355;-70
2023/10/26 06:23:08;;;;;;;2.75;2.58;;;;;;;;;;4998155;28;20108;-70
2023/10/26 06:25:34;;;;;;;3.05;2.85;;;;;;;;;;5015697;28;20433;-69
2023/10/26 06:27:59;;;;;;;2.55;2.35;;;;;;;;;;4997968;28;20416;-69
2023/10/26 06:30:25;;;;;;;4.47;3.03;;;;;;;;;;4998167;28;20029;-69
2023/10/26 06:32:51;;;;;;;4.20;3.15;;;;;;;;;;5015447;28;20034;-69
2023/10/26 06:35:17;;;;;;;4.32;2.40;;;;;;;;;;5014897;28;20022;-69
2023/10/26 06:37:42;;;;;;;3.22;2.30;;;;;;;;;;5015574;28;20477;-69
2023/10/26 06:40:08;;;;;;;7.53;2.33;;;;;;;;;;5015915;28;20041;-70
2023/10/26 06:42:34;;;;;;;2.60;2.40;;;;;;;;;;5015906;28;20018;-70
2023/10/26 06:44:59;;;;;;;3.85;2.58;;;;;;;;;;5015849;28;20022;-70
2023/10/26 06:47:25;;;;;;;6.60;3.47;;;;;;;;;;5015892;28;20037;-70
2023/10/26 06:49:50;;;;;;;4.10;2.55;;;;;;;;;;5016188;28;20026;-70
2023/10/26 06:52:15;;;;;;;4.18;2.92;;;;;;;;;;5015585;28;20034;-70
2023/10/26 06:54:41;;;;;;;4.70;2.80;;;;;;;;;;5015266;28;20049;-69
2023/10/26 06:57:06;;;;;;;4.60;2.80;;;;;;;;;;5015321;28;20106;-69
2023/10/26 06:59:32;;;;;;;3.60;2.28;;;;;;;;;;4997845;28;20049;-70
2023/10/26 07:01:57;;;;;;;2.42;2.00;;;;;;;;;;4997278;28;20025;-70
2023/10/26 07:04:22;;;;;;;6.45;2.92;;;;;;;;;;5014852;28;20148;-70
2023/10/26 07:06:48;;;;;;;3.97;2.83;;;;;;;;;;5014817;28;20037;-70
2023/10/26 07:09:15;;;;;;;3.28;2.40;;;;;;;;;;5014285;28;20028;-70
2023/10/26 07:11:40;;;;;;;3.47;2.60;;;;;;;;;;5014787;28;20042;-70
2023/10/26 07:14:06;;;;;;;4.93;2.55;;;;;;;;;;5014890;28;20037;-70
2023/10/26 07:16:31;;;;;;;3.10;2.55;;;;;;;;;;5014844;28;20022;-70
2023/10/26 07:18:56;;;;;;;5.53;3.33;;;;;;;;;;4997531;28;20075;-70
2023/10/26 07:21:22;;;;;;;4.80;2.63;;;;;;;;;;4997299;28;20049;-70
2023/10/26 07:23:47;;;;;;;2.60;1.83;;;;;;;;;;5014767;28;20343;-70
2023/10/26 07:26:17;;;;;;;2.42;2.22;;;;;;;;;;5014815;28;20057;-70
2023/10/26 07:28:42;;;;;;;2.20;2.00;;;;;;;;;;5014842;28;20053;-70
2023/10/26 07:31:08;;;;;;;3.03;2.75;;;;;;;;;;4997366;28;20347;-70
2023/10/26 07:33:33;;;;;;;1.35;1.23;;;;;;;;;;5014565;28;20036;-70
2023/10/26 07:35:58;;;;;;;2.40;2.20;;;;;;;;;;5014652;28;20029;-70
2023/10/26 07:38:26;;;;;;;2.30;2.05;;;;;;;;;;4996968;28;20010;-70
2023/10/26 07:40:53;;;;;;;2.33;2.10;;;;;;;;;;5014215;28;20042;-70
2023/10/26 07:43:18;;;;;;;2.45;2.25;;;;;;;;;;4996782;28;20084;-70
2023/10/26 07:45:46;;;;;;;2.72;2.20;;;;;;;;;;5014399;28;20026;-70
2023/10/26 07:48:11;;;;;;;2.00;1.90;;;;;;;;;;5013881;28;20030;-70
2023/10/26 07:50:39;;;;;;;2.47;2.28;;;;;;;;;;5014398;28;20026;-70
2023/10/26 07:53:05;;;;;;;2.42;2.22;;;;;;;;;;5014224;28;20030;-70
2023/10/26 07:55:31;;;;;;;2.42;2.22;;;;;;;;;;5013381;28;20038;-70
2023/10/26 07:57:57;;;;;;;2.70;2.20;;;;;;;;;;5014194;28;20080;-70
2023/10/26 08:00:22;;;;;;;2.95;2.25;;;;;;;;;;5014767;28;20017;-70
2023/10/26 08:02:47;;;;;;;2.45;2.22;;;;;;;;;;5014635;28;20380;-70
2023/10/26 08:05:15;;;;;;;2.50;2.30;;;;;;;;;;5014406;28;20528;-70
2023/10/26 08:07:40;;;;;;;2.42;2.22;;;;;;;;;;5014626;28;20041;-70
2023/10/26 08:10:06;;;;;;;2.70;2.50;;;;;;;;;;5012877;28;20025;-70
2023/10/26 08:12:31;;;;;;;2.55;2.35;;;;;;;;;;5012397;28;20462;-70
2023/10/26 08:14:57;;;;;;;3.58;2.80;;;;;;;;;;4994695;28;20030;-70
2023/10/26 08:17:23;;;;;;;3.47;2.60;;;;;;;;;;5012279;28;20022;-70
2023/10/26 08:19:53;;;;;;;2.58;2.38;;;;;;;;;;5011459;28;20543;-70
2023/10/26 08:22:18;;;;;;;2.55;2.35;;;;;;;;;;5012120;28;20033;-70
2023/10/26 08:24:43;;;;;;;2.40;2.20;;;;;;;;;;5012302;28;20029;-70
2023/10/26 08:27:08;;;;;;;2.97;2.20;;;;;;;;;;5012937;28;20017;-70
2023/10/26 08:29:34;;;;;;;3.78;3.45;;;;;;;;;;5014086;28;20105;-70
2023/10/26 08:31:59;;;;;;;5.70;5.22;;;;;;;;;;5014558;28;20038;-70
2023/10/26 08:34:26;;;;;;;24.15;7.80;;;;;;;;;;4997000;28;20038;-70
2023/10/26 08:36:51;;;;;;;7.43;6.03;;;;;;;;;;4996715;28;20034;-70
2023/10/26 08:39:17;;;;;;;7.68;5.65;;;;;;;;;;5013889;28;20496;-70
2023/10/26 08:41:48;;;;;;;7.35;5.05;;;;;;;;;;5014127;28;20034;-70
2023/10/26 08:44:15;;;;;;;2.75;2.55;;;;;;;;;;4996287;28;20032;-70
2023/10/26 08:46:41;;;;;;;11.73;6.38;;;;;;;;;;5014022;28;20026;-70
2023/10/26 08:49:06;;;;;;;14.25;7.35;;;;;;;;;;4980009;28;20436;-70
2023/10/26 08:51:32;;;;;;;9.95;5.35;;;;;;;;;;5013791;28;20112;-70
2023/10/26 08:53:57;;;;;;;5.18;4.25;;;;;;;;;;5013788;28;20049;-70
2023/10/26 08:56:23;;;;;;;5.28;3.75;;;;;;;;;;5014014;28;20041;-70
2023/10/26 08:58:48;;;;;;;8.30;4.18;;;;;;;;;;5013734;28;20037;-70
2023/10/26 09:01:15;;;;;;;4.93;3.10;;;;;;;;;;5013649;28;20389;-70
2023/10/26 09:03:40;;;;;;;9.05;4.55;;;;;;;;;;5013905;28;20492;-70
2023/10/26 09:06:06;;;;;;;4.60;3.10;;;;;;;;;;5013466;28;20034;-65
2023/10/26 09:08:31;;;;;;;4.65;2.70;;;;;;;;;;5014127;28;20522;-65
2023/10/26 09:10:56;;;;;;;2.53;2.33;;;;;;;;;;5013815;28;20430;-65
2023/10/26 09:13:26;;;;;;;4.00;2.65;;;;;;;;;;5013562;28;20040;-65
2023/10/26 09:15:53;;;;;;;5.20;3.22;;;;;;;;;;5013569;28;20029;-64
2023/10/26 09:18:19;;;;;;;2.85;2.17;;;;;;;;;;4979870;28;20018;-65
2023/10/26 09:21:01;;;;;;;2.78;2.50;;;;;;;;;;5013939;28;20034;-65
2023/10/26 09:23:27;;;;;;;6.63;2.85;;;;;;;;;;5013917;28;20499;-65
2023/10/26 09:26:02;;;;;;;5.47;2.67;;;;;;;;;;5013620;28;20065;-65
2023/10/26 09:28:27;;;;;;;2.13;2.03;;;;;;;;;;5013576;28;20029;-65
2023/10/26 09:30:57;;;;;;;3.17;2.25;;;;;;;;;;5014812;28;20033;-65
2023/10/26 09:33:23;;;;;;;2.42;1.95;;;;;;;;;;5017875;28;20132;-65
2023/10/26 09:38:33;;;;;;;5.18;2.80;;;;;;;;;;5014441;28;20463;-67
2023/10/26 09:41:15;;;;;;;1.65;1.55;;;;;;;;;;5009459;23;20461;-72
2023/10/26 09:43:41;;;;;;;7.72;4.30;;;;;;;;;;5023169;23;20050;-67
2023/10/26 09:46:13;;;;;;;2.83;2.05;;;;;;;;;;4999345;28;20477;-67
2023/10/26 09:48:40;;;;;;;0.80;0.80;;;;;;;;;;4983027;28;20423;-67
2023/10/26 09:51:09;;;;;;;3.53;2.70;;;;;;;;;;5015992;28;20101;-67
2023/10/26 09:53:35;;;;;;;3.28;1.90;;;;;;;;;;5031131;28;20120;-67
2023/10/26 09:56:04;;;;;;;2.75;1.55;;;;;;;;;;5015823;28;20025;-67
2023/10/26 09:58:40;;;;;;;3.08;2.20;;;;;;;;;;4998180;28;20026;-67
2023/10/26 10:01:24;;;;;;;2.03;1.90;;;;;;;;;;5017029;28;20054;-67
2023/10/26 10:03:50;;;;;;;1.58;1.48;;;;;;;;;;5016247;28;20025;-67
2023/10/26 10:06:34;;;;;;;1.70;1.60;;;;;;;;;;5016646;28;20022;-67
2023/10/26 10:09:00;;;;;;;1.50;1.38;;;;;;;;;;5016484;28;20026;-67
2023/10/26 10:11:26;;;;;;;3.53;1.33;;;;;;;;;;4998793;28;20341;-67
2023/10/26 10:13:51;;;;;;;1.30;1.20;;;;;;;;;;5016557;28;20088;-66
2023/10/26 10:16:35;;;;;;;1.88;1.45;;;;;;;;;;5031751;28;20030;-66
2023/10/26 10:19:20;;;;;;;1.10;0.95;;;;;;;;;;5016574;28;20038;-67
2023/10/26 10:21:51;;;;;;;2.22;1.38;;;;;;;;;;4998489;28;20447;-67
2023/10/26 10:24:17;;;;;;;;;;;;;;;;;;4999553;28;20029;-67
2023/10/26 10:27:01;;;;;;;1.30;1.20;;;;;;;;;;4999052;28;20049;-67
2023/10/26 10:29:27;;;;;;;1.40;1.30;;;;;;;;;;5016215;28;20032;-67
2023/10/26 10:31:52;;;;;;;2.92;1.30;;;;;;;;;;5016281;28;20022;-67
2023/10/26 10:34:20;;;;;;;1.95;1.38;;;;;;;;;;5016671;28;20116;-67
2023/10/26 10:37:03;;;;;;;2.25;1.35;;;;;;;;;;5016319;28;20105;-67
2023/10/26 10:39:29;;;;;;;1.10;1.00;;;;;;;;;;5015905;28;20026;-67
2023/10/26 10:41:55;;;;;;;0.82;0.82;;;;;;;;;;5031037;28;20033;-67
2023/10/26 10:44:20;;;;;;;2.15;1.20;;;;;;;;;;5030588;28;20524;-67
2023/10/26 10:46:49;;;;;;;1.65;1.13;;;;;;;;;;5016394;28;20424;-67
2023/10/26 10:49:16;;;;;;;2.20;1.38;;;;;;;;;;5015859;28;20053;-67
2023/10/26 10:51:42;;;;;;;1.00;1.00;;;;;;;;;;5014443;28;20029;-67
2023/10/26 10:54:12;;;;;;;1.00;1.00;;;;;;;;;;5015657;28;20121;-67
2023/10/26 10:56:38;;;;;;;3.85;1.58;;;;;;;;;;4998011;28;20493;-67
2023/10/26 10:59:16;;;;;;;1.38;1.20;;;;;;;;;;5015596;28;20022;-67
2023/10/26 11:01:42;;;;;;;2.60;2.13;;;;;;;;;;5015651;28;20030;-67
2023/10/26 11:04:10;;;;;;;2.85;1.17;;;;;;;;;;5015505;28;20045;-67
2023/10/26 11:06:43;;;;;;;30.13;3.53;;;;;;;;;;5015871;28;20033;-67
2023/10/26 11:09:25;;;;;;;11.18;3.97;;;;;;;;;;5015599;28;20469;-67
2023/10/26 11:11:51;;;;;;;4.10;1.48;;;;;;;;;;5015691;28;20041;-67
2023/10/26 11:14:18;;;;;;;4.57;1.80;;;;;;;;;;5014089;28;20033;-67
2023/10/26 11:16:44;;;;;;;4.40;2.90;;;;;;;;;;5015136;28;20068;-67
2023/10/26 11:19:09;;;;;;;7.47;3.53;;;;;;;;;;5015224;28;20057;-67
2023/10/26 11:21:35;;;;;;;3.28;1.80;;;;;;;;;;5015151;28;20427;-67
2023/10/26 11:24:01;;;;;;;3.60;1.73;;;;;;;;;;5015695;28;20034;-67
2023/10/26 11:26:27;;;;;;;4.30;2.28;;;;;;;;;;4997166;28;20101;-67
2023/10/26 11:28:52;;;;;;;3.70;2.10;;;;;;;;;;4981864;28;20028;-67
2023/10/26 11:31:33;;;;;;;8.20;4.65;;;;;;;;;;5015294;28;20108;-67
2023/10/26 11:34:02;;;;;;;3.05;1.60;;;;;;;;;;5014987;28;20115;-67
2023/10/26 11:36:28;;;;;;;2.13;1.90;;;;;;;;;;4997537;28;20030;-67
2023/10/26 11:38:54;;;;;;;2.03;1.42;;;;;;;;;;5015110;28;20116;-67
2023/10/26 11:41:24;;;;;;;4.22;1.98;;;;;;;;;;4997923;28;20026;-67
2023/10/26 11:43:49;;;;;;;5.60;1.58;;;;;;;;;;5014775;28;20069;-67
2023/10/26 11:46:15;;;;;;;6.50;2.63;;;;;;;;;;4997208;28;20135;-67
2023/10/26 11:48:40;;;;;;;4.05;2.47;;;;;;;;;;4997160;28;20034;-67
2023/10/26 11:51:08;;;;;;;4.53;2.42;;;;;;;;;;5029843;28;20469;-67
2023/10/26 11:53:35;;;;;;;2.53;1.98;;;;;;;;;;4997027;28;20032;-67
2023/10/26 11:56:01;;;;;;;8.52;3.63;;;;;;;;;;5030122;28;20037;-67
2023/10/26 11:58:26;;;;;;;4.20;1.25;;;;;;;;;;5014841;28;20080;-67
2023/10/26 12:00:51;;;;;;;8.35;2.70;;;;;;;;;;5029850;28;20040;-67
2023/10/26 12:03:17;;;;;;;7.70;3.22;;;;;;;;;;5014513;28;20048;-67
2023/10/26 12:05:44;;;;;;;11.02;4.55;;;;;;;;;;5014760;28;20037;-66
2023/10/26 12:08:10;;;;;;;5.43;2.78;;;;;;;;;;5014425;28;20053;-66
2023/10/26 12:10:35;;;;;;;4.97;2.30;;;;;;;;;;5014651;28;20072;-66
2023/10/26 12:13:01;;;;;;;5.00;2.30;;;;;;;;;;4997695;28;20037;-67
2023/10/26 12:15:26;;;;;;;2.72;1.55;;;;;;;;;;5014697;28;20030;-67
2023/10/26 12:17:52;;;;;;;1.23;0.77;;;;;;;;;;5014497;28;20040;-67
2023/10/26 12:20:17;;;;;;;5.05;2.22;;;;;;;;;;5014531;28;20034;-67
2023/10/26 12:22:43;;;;;;;1.15;1.05;;;;;;;;;;4996595;28;20070;-67
2023/10/26 12:25:10;;;;;;;4.45;1.17;;;;;;;;;;5013683;28;20338;-67
2023/10/26 12:27:36;;;;;;;7.28;3.05;;;;;;;;;;5012957;28;20048;-67
2023/10/26 12:30:02;;;;;;;10.05;4.88;;;;;;;;;;5013839;28;20489;-67
2023/10/26 12:32:29;;;;;;;9.98;5.75;;;;;;;;;;5029377;28;20054;-67
2023/10/26 12:34:56;;;;;;;9.90;3.40;;;;;;;;;;5013197;28;20365;-67
2023/10/26 12:37:21;;;;;;;3.75;2.80;;;;;;;;;;5012782;28;20034;-67
2023/10/26 12:39:47;;;;;;;6.80;4.20;;;;;;;;;;5013082;28;20362;-67
2023/10/26 12:42:12;;;;;;;6.10;2.22;;;;;;;;;;4995038;28;20385;-67
2023/10/26 12:44:40;;;;;;;2.30;2.08;;;;;;;;;;5013414;28;20026;-67
2023/10/26 12:47:06;;;;;;;3.38;1.83;;;;;;;;;;5013142;28;20049;-66
2023/10/26 12:49:31;;;;;;;1.98;1.02;;;;;;;;;;5028693;28;20072;-66
2023/10/26 12:51:56;;;;;;;4.15;2.38;;;;;;;;;;5014249;28;20204;-66
2023/10/26 12:54:22;;;;;;;3.25;2.22;;;;;;;;;;5029352;28;20104;-67
2023/10/26 12:56:47;;;;;;;4.45;2.10;;;;;;;;;;4995669;28;20057;-66
2023/10/26 12:59:14;;;;;;;5.72;2.35;;;;;;;;;;5012914;28;20026;-66
2023/10/26 13:01:39;;;;;;;2.03;1.75;;;;;;;;;;4995766;28;20034;-66
2023/10/26 13:04:06;;;;;;;5.85;2.17;;;;;;;;;;4996134;28;20014;-66
2023/10/26 13:06:35;;;;;;;4.78;2.28;;;;;;;;;;5015401;28;20419;-66
2023/10/26 13:09:04;;;;;;;4.90;3.22;;;;;;;;;;4999677;28;20042;-66
2023/10/26 13:11:30;;;;;;;7.63;4.17;;;;;;;;;;4999644;28;20037;-66
2023/10/26 13:13:56;;;;;;;5.55;3.58;;;;;;;;;;5017392;28;20030;-66
2023/10/26 13:16:21;;;;;;;9.43;3.22;;;;;;;;;;5016538;28;20042;-66
2023/10/26 13:18:47;;;;;;;4.68;3.22;;;;;;;;;;5015896;28;20034;-66
2023/10/26 13:21:12;;;;;;;6.97;3.22;;;;;;;;;;5017007;28;20481;-66
2023/10/26 13:23:37;;;;;;;5.75;2.80;;;;;;;;;;5016326;28;20033;-66
2023/10/26 13:26:03;;;;;;;4.85;1.83;;;;;;;;;;5016709;28;20369;-66
2023/10/26 13:28:28;;;;;;;4.13;2.47;;;;;;;;;;4999246;28;20437;-66
2023/10/26 13:30:54;;;;;;;5.82;2.97;;;;;;;;;;4999980;28;20049;-66
2023/10/26 13:33:20;;;;;;;10.73;5.40;;;;;;;;;;5017121;28;20092;-65
2023/10/26 13:35:45;;;;;;;1.60;1.23;;;;;;;;;;5017215;28;20412;-66
2023/10/26 13:38:13;;;;;;;3.30;1.70;;;;;;;;;;4999247;28;20065;-66
2023/10/26 13:40:42;;;;;;;3.60;2.72;;;;;;;;;;4999850;28;20480;-66
2023/10/26 13:43:11;;;;;;;3.13;1.75;;;;;;;;;;5016778;28;20061;-66
2023/10/26 13:45:37;;;;;;;2.13;1.92;;;;;;;;;;5016883;28;20030;-66
2023/10/26 13:48:05;;;;;;;5.63;3.60;;;;;;;;;;5016928;28;20100;-69
2023/10/26 13:50:31;;;;;;;2.78;2.15;;;;;;;;;;5016221;28;20061;-72
2023/10/26 13:52:56;;;;;;;2.08;1.52;;;;;;;;;;5016571;28;20030;-72
2023/10/26 13:55:22;;;;;;;1.48;1.38;;;;;;;;;;5016724;28;20062;-72
2023/10/26 13:57:47;;;;;;;3.25;2.08;;;;;;;;;;5016111;28;20033;-72
2023/10/26 14:00:13;;;;;;;2.60;1.88;;;;;;;;;;4998304;28;20483;-72
2023/10/26 14:02:39;;;;;;;5.22;3.58;;;;;;;;;;5015664;28;20037;-72
2023/10/26 14:05:08;;;;;;;4.85;2.42;;;;;;;;;;5015815;28;20034;-72
2023/10/26 14:07:34;;;;;;;11.02;5.50;;;;;;;;;;5016110;28;20021;-72
2023/10/26 14:10:05;;;;;;;3.80;2.85;;;;;;;;;;5016094;28;20373;-72
2023/10/26 14:12:30;;;;;;;4.18;3.20;;;;;;;;;;5016159;28;20041;-72
2023/10/26 14:14:57;;;;;;;3.85;2.75;;;;;;;;;;4998385;28;20038;-72
2023/10/26 14:17:22;;;;;;;4.95;3.38;;;;;;;;;;5014914;28;20369;-72
2023/10/26 14:19:48;;;;;;;7.20;3.63;;;;;;;;;;5016079;28;20037;-72
2023/10/26 14:22:13;;;;;;;3.63;2.60;;;;;;;;;;5016698;28;20026;-72
2023/10/26 14:24:40;;;;;;;4.65;3.08;;;;;;;;;;5016596;28;20028;-72
2023/10/26 14:27:05;;;;;;;6.05;3.00;;;;;;;;;;5015654;28;20355;-72
2023/10/26 14:29:31;;;;;;;3.55;2.95;;;;;;;;;;4997017;28;20088;-72
2023/10/26 14:31:56;;;;;;;5.78;3.25;;;;;;;;;;5015470;28;20041;-72
2023/10/26 14:34:21;;;;;;;8.80;3.90;;;;;;;;;;5015966;28;20034;-72
2023/10/26 14:36:47;;;;;;;19.38;8.23;;;;;;;;;;5015497;28;20374;-72
2023/10/26 14:39:12;;;;;;;7.15;4.57;;;;;;;;;;5015621;28;20092;-72